sensor_id;sensor_type;location;lat;lon;timestamp;pressure;altitude;pressure_sealevel;temperature;humidity
53689;BME280;39583;54.682;30.662;2022-07-05T04:37:10;99510.66;;;24.46;76.01
53689;BME280;39583;54.682;30.662;2022-07-05T04:39:37;99504.16;;;25.31;72.96
53689;BME280;39583;54.682;30.662;2022-07-05T04:42:08;99503.16;;;25.58;71.27
53689;BME280;39583;54.682;30.662;2022-07-05T04:44:34;99497.00;;;26.09;69.88
53689;BME280;39583;54.682;30.662;2022-07-05T04:47:00;99507.28;;;26.95;68.22
53689;BME280;39583;54.682;30.662;2022-07-05T04:49:26;99497.53;;;27.62;65.82
53689;BME280;39583;54.682;30.662;2022-07-05T04:51:53;99506.44;;;28.06;63.72
53689;BME280;39583;54.682;30.662;2022-07-05T04:54:19;99503.31;;;28.16;62.51
53689;BME280;39583;54.682;30.662;2022-07-05T04:56:46;99498.81;;;28.03;62.20
53689;BME280;39583;54.682;30.662;2022-07-05T04:59:12;99495.63;;;27.54;63.10
53689;BME280;39583;54.682;30.662;2022-07-05T05:01:38;99500.63;;;26.79;64.08
53689;BME280;39583;54.682;30.662;2022-07-05T05:04:04;99497.69;;;26.24;65.59
53689;BME280;39583;54.682;30.662;2022-07-05T05:06:31;99496.47;;;25.90;66.77
53689;BME280;39583;54.682;30.662;2022-07-05T05:08:57;99498.50;;;25.67;67.16
53689;BME280;39583;54.682;30.662;2022-07-05T05:11:23;99501.47;;;25.48;67.51
53689;BME280;39583;54.682;30.662;2022-07-05T05:13:49;99504.81;;;25.37;68.35
53689;BME280;39583;54.682;30.662;2022-07-05T05:16:16;99495.84;;;25.22;68.79
53689;BME280;39583;54.682;30.662;2022-07-05T05:18:42;99507.03;;;25.26;69.10
53689;BME280;39583;54.682;30.662;2022-07-05T05:21:08;99509.28;;;25.24;68.72
53689;BME280;39583;54.682;30.662;2022-07-05T05:23:35;99511.31;;;25.32;68.84
53689;BME280;39583;54.682;30.662;2022-07-05T05:26:01;99495.94;;;25.40;68.45
53689;BME280;39583;54.682;30.662;2022-07-05T05:28:27;99505.09;;;25.57;67.99
53689;BME280;39583;54.682;30.662;2022-07-05T05:30:53;99503.72;;;25.77;67.06
53689;BME280;39583;54.682;30.662;2022-07-05T05:33:20;99507.22;;;26.00;66.86
53689;BME280;39583;54.682;30.662;2022-07-05T05:35:46;99497.66;;;26.15;66.91
53689;BME280;39583;54.682;30.662;2022-07-05T05:38:12;99498.50;;;26.24;66.49
53689;BME280;39583;54.682;30.662;2022-07-05T05:40:38;99505.63;;;26.25;65.93
53689;BME280;39583;54.682;30.662;2022-07-05T05:43:07;99508.75;;;26.32;65.71
53689;BME280;39583;54.682;30.662;2022-07-05T05:45:33;99517.03;;;26.41;65.24
53689;BME280;39583;54.682;30.662;2022-07-05T05:48:00;99508.63;;;26.46;64.62
53689;BME280;39583;54.682;30.662;2022-07-05T05:50:34;99506.31;;;26.31;64.23
53689;BME280;39583;54.682;30.662;2022-07-05T05:53:01;99512.13;;;26.29;64.32
53689;BME280;39583;54.682;30.662;2022-07-05T05:55:29;99499.31;;;26.25;64.29
53689;BME280;39583;54.682;30.662;2022-07-05T05:57:56;99503.19;;;26.24;64.14
53689;BME280;39583;54.682;30.662;2022-07-05T06:00:25;99501.75;;;26.26;64.33
53689;BME280;39583;54.682;30.662;2022-07-05T06:02:52;99509.59;;;26.67;63.18
53689;BME280;39583;54.682;30.662;2022-07-05T06:05:18;99500.63;;;26.96;62.08
53689;BME280;39583;54.682;30.662;2022-07-05T06:07:53;99503.69;;;27.21;61.58
53689;BME280;39583;54.682;30.662;2022-07-05T06:10:25;99508.81;;;27.48;60.37
53689;BME280;39583;54.682;30.662;2022-07-05T06:12:54;99504.47;;;27.39;59.57
53689;BME280;39583;54.682;30.662;2022-07-05T06:15:21;99501.44;;;27.06;59.33
53689;BME280;39583;54.682;30.662;2022-07-05T06:17:48;99503.25;;;26.67;60.55
53689;BME280;39583;54.682;30.662;2022-07-05T06:20:19;99511.00;;;26.22;61.16
53689;BME280;39583;54.682;30.662;2022-07-05T06:22:46;99510.13;;;26.04;61.83
53689;BME280;39583;54.682;30.662;2022-07-05T06:25:13;99511.59;;;26.01;61.96
53689;BME280;39583;54.682;30.662;2022-07-05T06:27:44;99512.63;;;26.23;61.66
53689;BME280;39583;54.682;30.662;2022-07-05T06:30:14;99510.91;;;26.44;62.24
53689;BME280;39583;54.682;30.662;2022-07-05T06:32:45;99511.38;;;26.72;61.52
53689;BME280;39583;54.682;30.662;2022-07-05T06:35:12;99509.09;;;26.83;61.35
53689;BME280;39583;54.682;30.662;2022-07-05T06:37:46;99513.16;;;26.68;60.89
53689;BME280;39583;54.682;30.662;2022-07-05T06:40:16;99513.81;;;26.56;61.43
53689;BME280;39583;54.682;30.662;2022-07-05T06:42:43;99512.53;;;26.62;61.41
53689;BME280;39583;54.682;30.662;2022-07-05T06:45:10;99514.44;;;26.79;61.06
53689;BME280;39583;54.682;30.662;2022-07-05T06:47:37;99515.59;;;26.61;60.77
53689;BME280;39583;54.682;30.662;2022-07-05T06:50:04;99521.94;;;26.44;61.41
53689;BME280;39583;54.682;30.662;2022-07-05T06:52:32;99511.31;;;26.20;61.39
53689;BME280;39583;54.682;30.662;2022-07-05T06:54:59;99520.75;;;26.19;61.32
53689;BME280;39583;54.682;30.662;2022-07-05T06:57:25;99520.75;;;26.19;61.61
53689;BME280;39583;54.682;30.662;2022-07-05T06:59:52;99516.06;;;26.37;61.54
53689;BME280;39583;54.682;30.662;2022-07-05T07:02:19;99522.59;;;26.50;61.13
53689;BME280;39583;54.682;30.662;2022-07-05T07:04:46;99524.56;;;26.58;60.79
53689;BME280;39583;54.682;30.662;2022-07-05T07:07:12;99524.47;;;26.23;61.20
53689;BME280;39583;54.682;30.662;2022-07-05T07:09:58;99520.38;;;26.12;61.19
53689;BME280;39583;54.682;30.662;2022-07-05T07:12:25;99526.19;;;26.02;60.67
53689;BME280;39583;54.682;30.662;2022-07-05T07:14:51;99527.53;;;26.13;60.90
53689;BME280;39583;54.682;30.662;2022-07-05T07:17:17;99530.31;;;26.30;60.38
53689;BME280;39583;54.682;30.662;2022-07-05T07:19:44;99530.44;;;26.16;59.26
53689;BME280;39583;54.682;30.662;2022-07-05T07:22:10;99536.97;;;26.21;59.73
53689;BME280;39583;54.682;30.662;2022-07-05T07:24:36;99532.47;;;26.42;59.18
53689;BME280;39583;54.682;30.662;2022-07-05T07:27:03;99531.97;;;26.31;59.33
53689;BME280;39583;54.682;30.662;2022-07-05T07:29:31;99525.19;;;26.46;59.50
53689;BME280;39583;54.682;30.662;2022-07-05T07:31:58;99516.59;;;26.73;58.86
53689;BME280;39583;54.682;30.662;2022-07-05T07:34:26;99531.03;;;26.96;58.72
53689;BME280;39583;54.682;30.662;2022-07-05T07:36:53;99532.00;;;27.00;58.58
53689;BME280;39583;54.682;30.662;2022-07-05T07:39:20;99520.13;;;27.17;58.17
53689;BME280;39583;54.682;30.662;2022-07-05T07:41:47;99516.56;;;26.99;57.74
53689;BME280;39583;54.682;30.662;2022-07-05T07:44:13;99531.50;;;26.90;58.08
53689;BME280;39583;54.682;30.662;2022-07-05T07:46:39;99528.59;;;26.78;58.50
53689;BME280;39583;54.682;30.662;2022-07-05T07:49:07;99518.19;;;26.66;58.91
53689;BME280;39583;54.682;30.662;2022-07-05T07:51:33;99519.81;;;26.67;59.66
53689;BME280;39583;54.682;30.662;2022-07-05T07:54:00;99520.97;;;26.83;59.07
53689;BME280;39583;54.682;30.662;2022-07-05T07:56:26;99520.63;;;26.85;59.60
53689;BME280;39583;54.682;30.662;2022-07-05T07:58:52;99520.47;;;26.72;59.60
53689;BME280;39583;54.682;30.662;2022-07-05T08:01:19;99525.81;;;26.52;59.97
53689;BME280;39583;54.682;30.662;2022-07-05T08:03:45;99517.38;;;26.39;59.62
53689;BME280;39583;54.682;30.662;2022-07-05T08:06:12;99520.78;;;26.36;58.89
53689;BME280;39583;54.682;30.662;2022-07-05T08:08:41;99520.56;;;26.24;58.51
53689;BME280;39583;54.682;30.662;2022-07-05T08:11:10;99530.16;;;26.27;59.03
53689;BME280;39583;54.682;30.662;2022-07-05T08:13:36;99511.47;;;26.24;59.08
53689;BME280;39583;54.682;30.662;2022-07-05T08:16:03;99529.91;;;26.45;58.69
53689;BME280;39583;54.682;30.662;2022-07-05T08:18:29;99524.03;;;26.56;58.50
53689;BME280;39583;54.682;30.662;2022-07-05T08:21:14;99516.91;;;26.46;58.40
53689;BME280;39583;54.682;30.662;2022-07-05T08:24:06;99522.88;;;26.31;58.50
53689;BME280;39583;54.682;30.662;2022-07-05T08:26:33;99520.41;;;26.29;59.15
53689;BME280;39583;54.682;30.662;2022-07-05T08:29:01;99518.84;;;26.37;58.58
53689;BME280;39583;54.682;30.662;2022-07-05T08:31:28;99517.50;;;26.34;59.24
53689;BME280;39583;54.682;30.662;2022-07-05T08:33:55;99515.75;;;26.38;59.64
53689;BME280;39583;54.682;30.662;2022-07-05T08:36:22;99517.88;;;26.59;59.75
53689;BME280;39583;54.682;30.662;2022-07-05T08:38:48;99521.63;;;26.63;59.13
53689;BME280;39583;54.682;30.662;2022-07-05T08:41:18;99519.16;;;26.79;58.93
53689;BME280;39583;54.682;30.662;2022-07-05T08:43:47;99524.19;;;26.94;58.31
53689;BME280;39583;54.682;30.662;2022-07-05T08:46:15;99521.59;;;26.89;58.69
53689;BME280;39583;54.682;30.662;2022-07-05T08:48:43;99520.31;;;27.03;58.38
53689;BME280;39583;54.682;30.662;2022-07-05T08:51:14;99521.44;;;27.11;58.31
53689;BME280;39583;54.682;30.662;2022-07-05T08:53:43;99524.00;;;27.25;57.86
53689;BME280;39583;54.682;30.662;2022-07-05T08:56:11;99524.69;;;27.22;57.96
53689;BME280;39583;54.682;30.662;2022-07-05T08:58:38;99523.69;;;27.26;57.86
53689;BME280;39583;54.682;30.662;2022-07-05T09:01:06;99522.34;;;27.32;57.81
53689;BME280;39583;54.682;30.662;2022-07-05T09:03:41;99526.66;;;27.59;57.02
53689;BME280;39583;54.682;30.662;2022-07-05T09:06:10;99524.53;;;28.03;56.32
53689;BME280;39583;54.682;30.662;2022-07-05T09:08:38;99520.84;;;28.49;56.41
53689;BME280;39583;54.682;30.662;2022-07-05T09:11:11;99532.16;;;28.77;55.41
53689;BME280;39583;54.682;30.662;2022-07-05T09:13:40;99532.34;;;28.39;55.55
53689;BME280;39583;54.682;30.662;2022-07-05T09:16:07;99533.56;;;27.91;56.85
53689;BME280;39583;54.682;30.662;2022-07-05T09:18:52;99541.97;;;27.66;56.90
53689;BME280;39583;54.682;30.662;2022-07-05T09:21:27;99547.31;;;27.71;56.89
53689;BME280;39583;54.682;30.662;2022-07-05T09:24:01;99532.63;;;27.79;56.37
53689;BME280;39583;54.682;30.662;2022-07-05T09:26:37;99521.59;;;27.70;56.53
53689;BME280;39583;54.682;30.662;2022-07-05T09:29:08;99534.03;;;27.94;55.38
53689;BME280;39583;54.682;30.662;2022-07-05T09:31:37;99533.59;;;27.83;55.59
53689;BME280;39583;54.682;30.662;2022-07-05T09:34:14;99531.53;;;27.62;55.69
53689;BME280;39583;54.682;30.662;2022-07-05T09:42:19;99535.25;;;26.94;57.67
53689;BME280;39583;54.682;30.662;2022-07-05T09:44:50;99528.59;;;26.86;58.14
53689;BME280;39583;54.682;30.662;2022-07-05T09:47:21;99528.28;;;26.96;57.73
53689;BME280;39583;54.682;30.662;2022-07-05T09:49:50;99519.81;;;27.10;56.99
53689;BME280;39583;54.682;30.662;2022-07-05T09:52:31;99517.34;;;27.26;56.05
53689;BME280;39583;54.682;30.662;2022-07-05T09:55:08;99514.34;;;27.48;55.84
53689;BME280;39583;54.682;30.662;2022-07-05T09:57:39;99521.47;;;27.67;54.70
53689;BME280;39583;54.682;30.662;2022-07-05T10:00:08;99505.09;;;27.82;54.05
53689;BME280;39583;54.682;30.662;2022-07-05T10:02:45;99511.66;;;27.78;53.68
53689;BME280;39583;54.682;30.662;2022-07-05T10:05:15;99499.72;;;27.86;53.55
53689;BME280;39583;54.682;30.662;2022-07-05T10:07:46;99497.72;;;27.95;53.86
53689;BME280;39583;54.682;30.662;2022-07-05T10:10:16;99490.31;;;28.08;53.77
53689;BME280;39583;54.682;30.662;2022-07-05T10:12:44;99501.25;;;28.04;53.73
53689;BME280;39583;54.682;30.662;2022-07-05T10:15:14;99507.63;;;27.67;54.31
53689;BME280;39583;54.682;30.662;2022-07-05T10:17:44;99499.81;;;27.22;55.14
53689;BME280;39583;54.682;30.662;2022-07-05T10:20:28;99472.03;;;27.10;54.85
53689;BME280;39583;54.682;30.662;2022-07-05T10:22:56;99487.22;;;27.33;54.71
53689;BME280;39583;54.682;30.662;2022-07-05T10:25:23;99486.66;;;27.57;54.40
53689;BME280;39583;54.682;30.662;2022-07-05T10:27:51;99483.78;;;27.83;53.03
53689;BME280;39583;54.682;30.662;2022-07-05T10:30:25;99491.81;;;28.05;52.38
53689;BME280;39583;54.682;30.662;2022-07-05T10:32:52;99492.34;;;28.28;52.25
53689;BME280;39583;54.682;30.662;2022-07-05T10:35:19;99490.38;;;28.29;51.77
53689;BME280;39583;54.682;30.662;2022-07-05T10:37:48;99495.84;;;28.08;52.60
53689;BME280;39583;54.682;30.662;2022-07-05T10:40:16;99489.75;;;27.94;52.95
53689;BME280;39583;54.682;30.662;2022-07-05T10:42:48;99494.38;;;28.10;53.04
53689;BME280;39583;54.682;30.662;2022-07-05T10:45:33;99486.59;;;28.33;52.28
53689;BME280;39583;54.682;30.662;2022-07-05T10:48:17;99486.94;;;28.53;51.41
53689;BME280;39583;54.682;30.662;2022-07-05T10:58:38;99491.97;;;28.50;49.79
53689;BME280;39583;54.682;30.662;2022-07-05T11:06:23;99487.75;;;28.32;50.02
53689;BME280;39583;54.682;30.662;2022-07-05T11:11:38;99486.47;;;28.30;50.02
53689;BME280;39583;54.682;30.662;2022-07-05T11:20:06;99475.41;;;28.63;46.66
53689;BME280;39583;54.682;30.662;2022-07-05T11:23:00;99473.72;;;28.70;45.83
53689;BME280;39583;54.682;30.662;2022-07-05T11:25:28;99473.84;;;28.95;46.63
53689;BME280;39583;54.682;30.662;2022-07-05T11:28:11;99480.47;;;28.82;47.32
53689;BME280;39583;54.682;30.662;2022-07-05T11:30:55;99471.19;;;28.44;47.83
53689;BME280;39583;54.682;30.662;2022-07-05T11:33:41;99478.63;;;28.32;48.79
53689;BME280;39583;54.682;30.662;2022-07-05T11:36:24;99477.72;;;28.19;48.80
53689;BME280;39583;54.682;30.662;2022-07-05T11:39:14;99474.09;;;27.98;49.06
53689;BME280;39583;54.682;30.662;2022-07-05T11:41:47;99469.06;;;28.20;49.16
53689;BME280;39583;54.682;30.662;2022-07-05T11:44:14;99475.25;;;28.47;47.67
53689;BME280;39583;54.682;30.662;2022-07-05T11:46:42;99475.06;;;28.52;48.08
53689;BME280;39583;54.682;30.662;2022-07-05T11:49:08;99482.22;;;28.53;48.04
53689;BME280;39583;54.682;30.662;2022-07-05T11:51:35;99485.75;;;28.74;47.51
53689;BME280;39583;54.682;30.662;2022-07-05T11:54:03;99476.56;;;28.83;47.13
53689;BME280;39583;54.682;30.662;2022-07-05T11:56:29;99484.63;;;29.08;46.03
53689;BME280;39583;54.682;30.662;2022-07-05T11:58:56;99479.03;;;29.42;45.52
53689;BME280;39583;54.682;30.662;2022-07-05T12:01:22;99474.19;;;29.38;45.40
53689;BME280;39583;54.682;30.662;2022-07-05T12:03:55;99477.19;;;29.33;45.09
53689;BME280;39583;54.682;30.662;2022-07-05T12:06:22;99477.88;;;29.43;44.67
53689;BME280;39583;54.682;30.662;2022-07-05T12:09:05;99481.41;;;29.64;44.76
53689;BME280;39583;54.682;30.662;2022-07-05T12:11:32;99484.63;;;29.78;44.76
53689;BME280;39583;54.682;30.662;2022-07-05T12:14:22;99482.56;;;29.75;44.84
53689;BME280;39583;54.682;30.662;2022-07-05T12:17:11;99483.72;;;29.62;44.90
53689;BME280;39583;54.682;30.662;2022-07-05T12:19:38;99490.06;;;29.50;45.39
53689;BME280;39583;54.682;30.662;2022-07-05T12:22:04;99480.88;;;29.37;45.42
53689;BME280;39583;54.682;30.662;2022-07-05T12:24:30;99484.97;;;29.07;45.30
53689;BME280;39583;54.682;30.662;2022-07-05T12:26:57;99490.47;;;28.74;45.88
53689;BME280;39583;54.682;30.662;2022-07-05T12:29:23;99484.56;;;28.42;46.31
53689;BME280;39583;54.682;30.662;2022-07-05T12:32:03;99491.88;;;28.17;46.88
53689;BME280;39583;54.682;30.662;2022-07-05T12:34:30;99481.34;;;28.11;47.89
53689;BME280;39583;54.682;30.662;2022-07-05T12:36:57;99476.88;;;28.27;46.79
53689;BME280;39583;54.682;30.662;2022-07-05T12:39:24;99496.31;;;28.10;46.25
53689;BME280;39583;54.682;30.662;2022-07-05T12:41:50;99481.41;;;28.23;46.45
53689;BME280;39583;54.682;30.662;2022-07-05T12:44:20;99490.78;;;28.39;45.13
53689;BME280;39583;54.682;30.662;2022-07-05T12:46:46;99492.75;;;28.09;45.58
53689;BME280;39583;54.682;30.662;2022-07-05T12:49:15;99496.94;;;27.86;46.26
53689;BME280;39583;54.682;30.662;2022-07-05T12:51:42;99490.22;;;27.66;46.03
53689;BME280;39583;54.682;30.662;2022-07-05T12:54:29;99487.31;;;27.92;45.38
53689;BME280;39583;54.682;30.662;2022-07-05T12:57:15;99492.00;;;28.30;43.98
53689;BME280;39583;54.682;30.662;2022-07-05T13:00:06;99492.75;;;28.39;43.58
53689;BME280;39583;54.682;30.662;2022-07-05T13:02:40;99490.75;;;28.18;43.29
53689;BME280;39583;54.682;30.662;2022-07-05T13:05:09;99483.81;;;28.33;43.46
53689;BME280;39583;54.682;30.662;2022-07-05T13:07:42;99481.34;;;28.73;43.01
53689;BME280;39583;54.682;30.662;2022-07-05T13:10:14;99490.94;;;28.97;43.07
53689;BME280;39583;54.682;30.662;2022-07-05T13:12:41;99497.22;;;29.06;42.97
53689;BME280;39583;54.682;30.662;2022-07-05T13:15:07;99499.31;;;29.09;43.24
53689;BME280;39583;54.682;30.662;2022-07-05T13:17:34;99490.41;;;29.16;43.12
53689;BME280;39583;54.682;30.662;2022-07-05T13:20:00;99500.81;;;29.06;42.81
53689;BME280;39583;54.682;30.662;2022-07-05T13:22:29;99503.66;;;28.77;42.90
53689;BME280;39583;54.682;30.662;2022-07-05T13:24:55;99503.13;;;28.84;43.21
53689;BME280;39583;54.682;30.662;2022-07-05T13:27:22;99502.59;;;28.69;42.64
53689;BME280;39583;54.682;30.662;2022-07-05T13:29:48;99501.03;;;28.81;42.78
53689;BME280;39583;54.682;30.662;2022-07-05T13:32:14;99510.47;;;29.00;42.74
53689;BME280;39583;54.682;30.662;2022-07-05T13:34:48;99495.38;;;29.10;41.96
53689;BME280;39583;54.682;30.662;2022-07-05T13:37:14;99494.94;;;29.20;42.24
53689;BME280;39583;54.682;30.662;2022-07-05T13:39:41;99502.72;;;29.39;42.42
53689;BME280;39583;54.682;30.662;2022-07-05T13:42:07;99492.09;;;29.41;42.00
53689;BME280;39583;54.682;30.662;2022-07-05T13:44:33;99503.16;;;29.29;41.92
53689;BME280;39583;54.682;30.662;2022-07-05T13:47:00;99498.38;;;29.05;42.20
53689;BME280;39583;54.682;30.662;2022-07-05T13:49:27;99502.72;;;28.94;42.63
53689;BME280;39583;54.682;30.662;2022-07-05T13:51:53;99500.81;;;28.86;42.66
53689;BME280;39583;54.682;30.662;2022-07-05T13:54:19;99500.63;;;28.70;43.48
53689;BME280;39583;54.682;30.662;2022-07-05T13:56:45;99501.09;;;28.72;43.08
53689;BME280;39583;54.682;30.662;2022-07-05T13:59:12;99502.53;;;28.78;43.00
53689;BME280;39583;54.682;30.662;2022-07-05T14:01:38;99497.06;;;28.69;42.96
53689;BME280;39583;54.682;30.662;2022-07-05T14:04:05;99493.59;;;28.72;42.69
53689;BME280;39583;54.682;30.662;2022-07-05T14:06:31;99487.53;;;28.79;42.71
53689;BME280;39583;54.682;30.662;2022-07-05T14:08:59;99473.63;;;28.67;42.36
53689;BME280;39583;54.682;30.662;2022-07-05T14:11:26;99490.94;;;28.76;42.47
53689;BME280;39583;54.682;30.662;2022-07-05T14:13:55;99485.34;;;28.64;42.70
53689;BME280;39583;54.682;30.662;2022-07-05T14:16:23;99481.97;;;28.79;43.22
53689;BME280;39583;54.682;30.662;2022-07-05T14:18:50;99480.69;;;28.97;42.77
53689;BME280;39583;54.682;30.662;2022-07-05T14:21:18;99481.41;;;29.06;42.42
53689;BME280;39583;54.682;30.662;2022-07-05T14:23:45;99474.47;;;29.13;41.84
53689;BME280;39583;54.682;30.662;2022-07-05T14:26:14;99480.91;;;28.92;41.83
53689;BME280;39583;54.682;30.662;2022-07-05T14:28:40;99477.44;;;28.74;42.54
53689;BME280;39583;54.682;30.662;2022-07-05T14:31:07;99485.56;;;28.59;42.76
53689;BME280;39583;54.682;30.662;2022-07-05T14:33:33;99491.59;;;28.40;42.64
53689;BME280;39583;54.682;30.662;2022-07-05T14:35:59;99484.19;;;28.23;43.13
53689;BME280;39583;54.682;30.662;2022-07-05T14:38:26;99485.59;;;28.08;43.39
53689;BME280;39583;54.682;30.662;2022-07-05T14:40:52;99486.06;;;28.10;43.49
53689;BME280;39583;54.682;30.662;2022-07-05T14:43:19;99500.16;;;28.26;43.67
53689;BME280;39583;54.682;30.662;2022-07-05T14:45:45;99500.44;;;28.54;43.52
53689;BME280;39583;54.682;30.662;2022-07-05T14:48:13;99491.97;;;28.71;43.12
53689;BME280;39583;54.682;30.662;2022-07-05T14:50:40;99500.41;;;28.96;42.96
53689;BME280;39583;54.682;30.662;2022-07-05T14:53:06;99512.81;;;29.11;42.38
53689;BME280;39583;54.682;30.662;2022-07-05T14:55:35;99492.63;;;29.10;43.05
53689;BME280;39583;54.682;30.662;2022-07-05T14:58:02;99499.91;;;29.27;42.42
53689;BME280;39583;54.682;30.662;2022-07-05T15:00:28;99506.63;;;29.26;42.36
53689;BME280;39583;54.682;30.662;2022-07-05T15:02:54;99512.72;;;29.07;42.08
53689;BME280;39583;54.682;30.662;2022-07-05T15:05:21;99502.56;;;28.90;42.14
53689;BME280;39583;54.682;30.662;2022-07-05T15:07:47;99507.78;;;28.71;42.61
53689;BME280;39583;54.682;30.662;2022-07-05T15:10:13;99498.41;;;28.63;42.14
53689;BME280;39583;54.682;30.662;2022-07-05T15:12:39;99496.59;;;28.46;42.57
53689;BME280;39583;54.682;30.662;2022-07-05T15:15:06;99487.47;;;28.46;42.38
53689;BME280;39583;54.682;30.662;2022-07-05T15:17:33;99497.78;;;28.37;41.62
53689;BME280;39583;54.682;30.662;2022-07-05T15:20:00;99499.19;;;28.22;41.76
53689;BME280;39583;54.682;30.662;2022-07-05T15:22:26;99512.75;;;28.15;41.81
53689;BME280;39583;54.682;30.662;2022-07-05T15:24:53;99516.84;;;28.09;41.99
53689;BME280;39583;54.682;30.662;2022-07-05T15:27:22;99523.72;;;28.32;41.78
53689;BME280;39583;54.682;30.662;2022-07-05T15:29:48;99516.16;;;28.83;41.08
53689;BME280;39583;54.682;30.662;2022-07-05T15:32:15;99524.44;;;29.37;39.69
53689;BME280;39583;54.682;30.662;2022-07-05T15:34:41;99522.78;;;29.93;38.63
53689;BME280;39583;54.682;30.662;2022-07-05T15:37:08;99525.59;;;30.70;36.77
53689;BME280;39583;54.682;30.662;2022-07-05T15:39:34;99513.34;;;31.27;35.91
53689;BME280;39583;54.682;30.662;2022-07-05T15:42:03;99513.63;;;32.01;35.05
53689;BME280;39583;54.682;30.662;2022-07-05T15:44:30;99517.28;;;32.56;34.12
53689;BME280;39583;54.682;30.662;2022-07-05T15:46:56;99507.16;;;32.67;34.01
53689;BME280;39583;54.682;30.662;2022-07-05T15:49:25;99513.38;;;32.41;33.37
53689;BME280;39583;54.682;30.662;2022-07-05T15:51:52;99505.25;;;32.33;34.08
53689;BME280;39583;54.682;30.662;2022-07-05T15:54:18;99511.34;;;32.58;33.86
53689;BME280;39583;54.682;30.662;2022-07-05T15:56:45;99510.44;;;32.34;33.13
53689;BME280;39583;54.682;30.662;2022-07-05T15:59:12;99514.81;;;31.68;34.14
53689;BME280;39583;54.682;30.662;2022-07-05T16:01:38;99511.56;;;31.66;34.05
53689;BME280;39583;54.682;30.662;2022-07-05T16:04:05;99502.66;;;32.08;33.32
53689;BME280;39583;54.682;30.662;2022-07-05T16:06:32;99517.50;;;32.47;32.30
53689;BME280;39583;54.682;30.662;2022-07-05T16:08:58;99523.16;;;32.00;33.48
53689;BME280;39583;54.682;30.662;2022-07-05T16:11:25;99521.38;;;31.76;34.16
53689;BME280;39583;54.682;30.662;2022-07-05T16:13:52;99517.31;;;31.58;34.05
53689;BME280;39583;54.682;30.662;2022-07-05T16:16:18;99526.28;;;31.51;34.18
53689;BME280;39583;54.682;30.662;2022-07-05T16:18:46;99519.31;;;31.14;34.38
53689;BME280;39583;54.682;30.662;2022-07-05T16:21:15;99523.94;;;30.81;34.86
53689;BME280;39583;54.682;30.662;2022-07-05T16:23:44;99526.63;;;30.13;35.87
53689;BME280;39583;54.682;30.662;2022-07-05T16:26:13;99527.56;;;29.35;36.86
53689;BME280;39583;54.682;30.662;2022-07-05T16:28:40;99530.81;;;28.84;38.07
53689;BME280;39583;54.682;30.662;2022-07-05T16:31:09;99535.63;;;28.33;39.21
53689;BME280;39583;54.682;30.662;2022-07-05T16:33:43;99545.03;;;27.73;40.02
53689;BME280;39583;54.682;30.662;2022-07-05T16:36:19;99545.94;;;27.21;41.13
53689;BME280;39583;54.682;30.662;2022-07-05T16:38:46;99546.78;;;26.79;41.45
53689;BME280;39583;54.682;30.662;2022-07-05T16:41:13;99538.31;;;26.40;42.17
53689;BME280;39583;54.682;30.662;2022-07-05T16:43:42;99551.72;;;26.16;42.86
53689;BME280;39583;54.682;30.662;2022-07-05T16:46:10;99554.41;;;25.90;43.50
53689;BME280;39583;54.682;30.662;2022-07-05T16:48:40;99550.88;;;25.67;43.92
53689;BME280;39583;54.682;30.662;2022-07-05T16:51:09;99557.09;;;25.50;44.36
53689;BME280;39583;54.682;30.662;2022-07-05T16:53:36;99545.50;;;25.31;44.93
53689;BME280;39583;54.682;30.662;2022-07-05T16:56:03;99552.97;;;25.31;45.65
53689;BME280;39583;54.682;30.662;2022-07-05T16:58:31;99555.41;;;25.32;45.44
53689;BME280;39583;54.682;30.662;2022-07-05T17:01:03;99555.16;;;25.51;45.02
53689;BME280;39583;54.682;30.662;2022-07-05T17:03:30;99548.59;;;25.92;44.66
53689;BME280;39583;54.682;30.662;2022-07-05T17:05:56;99555.97;;;26.22;44.22
53689;BME280;39583;54.682;30.662;2022-07-05T17:08:22;99550.03;;;26.55;43.70
53689;BME280;39583;54.682;30.662;2022-07-05T17:10:49;99546.81;;;26.96;42.75
53689;BME280;39583;54.682;30.662;2022-07-05T17:13:15;99542.97;;;27.44;42.28
53689;BME280;39583;54.682;30.662;2022-07-05T17:15:41;99534.75;;;27.82;42.77
53689;BME280;39583;54.682;30.662;2022-07-05T17:18:08;99540.81;;;27.58;44.30
53689;BME280;39583;54.682;30.662;2022-07-05T17:20:34;99532.50;;;27.02;46.17
53689;BME280;39583;54.682;30.662;2022-07-05T17:23:00;99532.94;;;26.35;48.10
53689;BME280;39583;54.682;30.662;2022-07-05T17:25:27;99547.09;;;25.85;49.52
53689;BME280;39583;54.682;30.662;2022-07-05T17:27:53;99552.00;;;25.35;51.50
53689;BME280;39583;54.682;30.662;2022-07-05T17:30:19;99547.00;;;24.92;52.26
53689;BME280;39583;54.682;30.662;2022-07-05T17:32:46;99556.50;;;24.64;53.58
53689;BME280;39583;54.682;30.662;2022-07-05T17:35:12;99551.66;;;24.33;54.56
53689;BME280;39583;54.682;30.662;2022-07-05T17:37:38;99553.50;;;23.97;55.28
53689;BME280;39583;54.682;30.662;2022-07-05T17:40:05;99557.66;;;23.67;56.07
53689;BME280;39583;54.682;30.662;2022-07-05T17:42:32;99534.97;;;23.29;57.03
53689;BME280;39583;54.682;30.662;2022-07-05T17:44:58;99563.00;;;23.12;57.88
53689;BME280;39583;54.682;30.662;2022-07-05T17:47:25;99570.59;;;22.82;58.76
53689;BME280;39583;54.682;30.662;2022-07-05T17:49:51;99567.09;;;22.58;59.43
53689;BME280;39583;54.682;30.662;2022-07-05T17:52:18;99562.50;;;22.34;59.81
53689;BME280;39583;54.682;30.662;2022-07-05T17:54:45;99440.06;;;21.34;60.57
53689;BME280;39583;54.682;30.662;2022-07-05T17:57:12;99569.50;;;21.98;61.08
53689;BME280;39583;54.682;30.662;2022-07-05T17:59:38;99560.41;;;21.78;61.59
53689;BME280;39583;54.682;30.662;2022-07-05T18:02:04;99570.44;;;21.64;62.16